sensor_id;sensor_type;location;lat;lon;timestamp;pressure;altitude;pressure_sealevel;temperature
44429;BMP180;30134;47.866;-4.222;2023-03-20T00:02:18;101798.00;;;24.20
44429;BMP180;30134;47.866;-4.222;2023-03-20T00:04:44;101799.00;;;24.40
44429;BMP180;30134;47.866;-4.222;2023-03-20T00:07:10;101799.00;;;24.20
44429;BMP180;30134;47.866;-4.222;2023-03-20T00:09:38;101801.00;;;24.20
44429;BMP180;30134;47.866;-4.222;2023-03-20T00:12:04;101813.00;;;24.30
44429;BMP180;30134;47.866;-4.222;2023-03-20T00:14:30;101805.00;;;24.20
44429;BMP180;30134;47.866;-4.222;2023-03-20T00:16:59;101808.00;;;24.10
44429;BMP180;30134;47.866;-4.222;2023-03-20T00:19:27;101803.00;;;24.10
44429;BMP180;30134;47.866;-4.222;2023-03-20T00:21:57;101803.00;;;24.10
44429;BMP180;30134;47.866;-4.222;2023-03-20T00:24:24;101811.00;;;24.10
44429;BMP180;30134;47.866;-4.222;2023-03-20T00:26:51;101802.00;;;24.20
44429;BMP180;30134;47.866;-4.222;2023-03-20T00:29:27;101806.00;;;24.20
44429;BMP180;30134;47.866;-4.222;2023-03-20T00:31:56;101800.00;;;24.30
44429;BMP180;30134;47.866;-4.222;2023-03-20T00:34:27;101797.00;;;24.30
44429;BMP180;30134;47.866;-4.222;2023-03-20T00:36:57;101803.00;;;24.30
44429;BMP180;30134;47.866;-4.222;2023-03-20T00:39:23;101811.00;;;24.30
44429;BMP180;30134;47.866;-4.222;2023-03-20T00:41:59;101813.00;;;24.30
44429;BMP180;30134;47.866;-4.222;2023-03-20T00:46:59;101806.00;;;24.40
44429;BMP180;30134;47.866;-4.222;2023-03-20T00:49:33;101811.00;;;24.40
44429;BMP180;30134;47.866;-4.222;2023-03-20T00:52:01;101802.00;;;24.40
44429;BMP180;30134;47.866;-4.222;2023-03-20T00:54:28;101800.00;;;24.40
44429;BMP180;30134;47.866;-4.222;2023-03-20T00:57:15;101796.00;;;24.40
44429;BMP180;30134;47.866;-4.222;2023-03-20T01:02:52;101790.00;;;24.40
44429;BMP180;30134;47.866;-4.222;2023-03-20T01:05:26;101787.00;;;24.40
44429;BMP180;30134;47.866;-4.222;2023-03-20T01:07:54;101794.00;;;24.40
44429;BMP180;30134;47.866;-4.222;2023-03-20T01:10:23;101796.00;;;24.40
44429;BMP180;30134;47.866;-4.222;2023-03-20T01:12:52;101796.00;;;24.40
44429;BMP180;30134;47.866;-4.222;2023-03-20T01:15:26;101799.00;;;24.40
44429;BMP180;30134;47.866;-4.222;2023-03-20T01:17:55;101800.00;;;24.40
44429;BMP180;30134;47.866;-4.222;2023-03-20T01:20:25;101804.00;;;24.40
44429;BMP180;30134;47.866;-4.222;2023-03-20T01:22:52;101806.00;;;24.40
44429;BMP180;30134;47.866;-4.222;2023-03-20T01:25:19;101802.00;;;24.40
44429;BMP180;30134;47.866;-4.222;2023-03-20T01:27:52;101802.00;;;24.40
44429;BMP180;30134;47.866;-4.222;2023-03-20T01:30:29;101800.00;;;24.40
44429;BMP180;30134;47.866;-4.222;2023-03-20T01:32:57;101804.00;;;24.40
44429;BMP180;30134;47.866;-4.222;2023-03-20T01:35:26;101798.00;;;24.40
44429;BMP180;30134;47.866;-4.222;2023-03-20T01:37:54;101799.00;;;24.50
44429;BMP180;30134;47.866;-4.222;2023-03-20T01:40:42;101801.00;;;24.50
44429;BMP180;30134;47.866;-4.222;2023-03-20T01:43:16;101802.00;;;24.50
44429;BMP180;30134;47.866;-4.222;2023-03-20T01:51:31;101791.00;;;24.50
44429;BMP180;30134;47.866;-4.222;2023-03-20T01:54:20;101782.00;;;24.50
44429;BMP180;30134;47.866;-4.222;2023-03-20T01:56:53;101773.00;;;24.50
44429;BMP180;30134;47.866;-4.222;2023-03-20T02:00:08;101779.00;;;24.40
44429;BMP180;30134;47.866;-4.222;2023-03-20T02:02:20;101784.00;;;24.50
44429;BMP180;30134;47.866;-4.222;2023-03-20T02:04:53;101784.00;;;24.40
44429;BMP180;30134;47.866;-4.222;2023-03-20T02:07:22;101777.00;;;24.50
44429;BMP180;30134;47.866;-4.222;2023-03-20T02:09:49;101785.00;;;24.50
44429;BMP180;30134;47.866;-4.222;2023-03-20T02:12:17;101775.00;;;24.50
44429;BMP180;30134;47.866;-4.222;2023-03-20T02:14:46;101778.00;;;24.50
44429;BMP180;30134;47.866;-4.222;2023-03-20T02:17:13;101766.00;;;24.50
44429;BMP180;30134;47.866;-4.222;2023-03-20T02:26:08;101758.00;;;24.50
44429;BMP180;30134;47.866;-4.222;2023-03-20T02:48:50;101742.00;;;24.50
44429;BMP180;30134;47.866;-4.222;2023-03-20T02:51:57;101738.00;;;24.50
44429;BMP180;30134;47.866;-4.222;2023-03-20T02:55:36;101738.00;;;24.90
44429;BMP180;30134;47.866;-4.222;2023-03-20T02:58:29;101739.00;;;24.60
44429;BMP180;30134;47.866;-4.222;2023-03-20T03:01:14;101733.00;;;24.50
44429;BMP180;30134;47.866;-4.222;2023-03-20T03:03:53;101731.00;;;24.50
44429;BMP180;30134;47.866;-4.222;2023-03-20T03:06:31;101731.00;;;24.60
44429;BMP180;30134;47.866;-4.222;2023-03-20T03:09:06;101728.00;;;24.50
44429;BMP180;30134;47.866;-4.222;2023-03-20T03:11:44;101728.00;;;24.50
44429;BMP180;30134;47.866;-4.222;2023-03-20T03:14:42;101725.00;;;24.40
44429;BMP180;30134;47.866;-4.222;2023-03-20T03:17:10;101727.00;;;24.60
44429;BMP180;30134;47.866;-4.222;2023-03-20T03:19:42;101733.00;;;24.50
44429;BMP180;30134;47.866;-4.222;2023-03-20T03:22:09;101735.00;;;24.50
44429;BMP180;30134;47.866;-4.222;2023-03-20T03:24:43;101729.00;;;24.50
44429;BMP180;30134;47.866;-4.222;2023-03-20T03:30:36;101715.00;;;24.50
44429;BMP180;30134;47.866;-4.222;2023-03-20T03:35:47;101727.00;;;24.50
44429;BMP180;30134;47.866;-4.222;2023-03-20T03:41:21;101710.00;;;24.50
44429;BMP180;30134;47.866;-4.222;2023-03-20T03:44:12;101722.00;;;24.50
44429;BMP180;30134;47.866;-4.222;2023-03-20T03:49:19;101707.00;;;24.50
44429;BMP180;30134;47.866;-4.222;2023-03-20T03:51:51;101710.00;;;24.50
44429;BMP180;30134;47.866;-4.222;2023-03-20T03:54:27;101712.00;;;24.50
44429;BMP180;30134;47.866;-4.222;2023-03-20T03:56:56;101709.00;;;24.50
44429;BMP180;30134;47.866;-4.222;2023-03-20T03:59:32;101707.00;;;24.50
44429;BMP180;30134;47.866;-4.222;2023-03-20T04:02:01;101705.00;;;24.50
44429;BMP180;30134;47.866;-4.222;2023-03-20T04:04:31;101700.00;;;24.50
44429;BMP180;30134;47.866;-4.222;2023-03-20T04:06:58;101694.00;;;24.50
44429;BMP180;30134;47.866;-4.222;2023-03-20T04:09:24;101691.00;;;24.50
44429;BMP180;30134;47.866;-4.222;2023-03-20T04:11:51;101694.00;;;24.50
44429;BMP180;30134;47.866;-4.222;2023-03-20T04:14:17;101687.00;;;24.50
44429;BMP180;30134;47.866;-4.222;2023-03-20T04:16:44;101694.00;;;24.50
44429;BMP180;30134;47.866;-4.222;2023-03-20T04:19:11;101692.00;;;24.50
44429;BMP180;30134;47.866;-4.222;2023-03-20T04:21:37;101695.00;;;24.50
44429;BMP180;30134;47.866;-4.222;2023-03-20T04:24:03;101691.00;;;24.50
44429;BMP180;30134;47.866;-4.222;2023-03-20T04:26:29;101694.00;;;24.60
44429;BMP180;30134;47.866;-4.222;2023-03-20T04:28:55;101693.00;;;24.50
44429;BMP180;30134;47.866;-4.222;2023-03-20T04:31:22;101690.00;;;24.60
44429;BMP180;30134;47.866;-4.222;2023-03-20T04:33:48;101689.00;;;24.50
44429;BMP180;30134;47.866;-4.222;2023-03-20T04:36:14;101692.00;;;24.50
44429;BMP180;30134;47.866;-4.222;2023-03-20T04:38:41;101689.00;;;24.50
44429;BMP180;30134;47.866;-4.222;2023-03-20T04:41:07;101682.00;;;24.60
44429;BMP180;30134;47.866;-4.222;2023-03-20T04:43:33;101685.00;;;24.50
44429;BMP180;30134;47.866;-4.222;2023-03-20T04:46:00;101685.00;;;24.60
44429;BMP180;30134;47.866;-4.222;2023-03-20T04:48:27;101683.00;;;24.50
44429;BMP180;30134;47.866;-4.222;2023-03-20T04:50:53;101676.00;;;24.50
44429;BMP180;30134;47.866;-4.222;2023-03-20T04:53:19;101679.00;;;24.50
44429;BMP180;30134;47.866;-4.222;2023-03-20T04:55:45;101681.00;;;24.50
44429;BMP180;30134;47.866;-4.222;2023-03-20T04:58:12;101679.00;;;24.50
44429;BMP180;30134;47.866;-4.222;2023-03-20T05:00:39;101674.00;;;24.60
44429;BMP180;30134;47.866;-4.222;2023-03-20T05:03:05;101670.00;;;24.50
44429;BMP180;30134;47.866;-4.222;2023-03-20T05:05:31;101672.00;;;24.50
44429;BMP180;30134;47.866;-4.222;2023-03-20T05:07:58;101667.00;;;24.50
44429;BMP180;30134;47.866;-4.222;2023-03-20T05:10:24;101677.00;;;24.60
44429;BMP180;30134;47.866;-4.222;2023-03-20T05:12:50;101673.00;;;24.50
44429;BMP180;30134;47.866;-4.222;2023-03-20T05:15:16;101675.00;;;24.60
44429;BMP180;30134;47.866;-4.222;2023-03-20T05:17:42;101678.00;;;24.60
44429;BMP180;30134;47.866;-4.222;2023-03-20T05:20:09;101684.00;;;24.60
44429;BMP180;30134;47.866;-4.222;2023-03-20T05:22:35;101675.00;;;24.50
44429;BMP180;30134;47.866;-4.222;2023-03-20T05:25:02;101677.00;;;24.60
44429;BMP180;30134;47.866;-4.222;2023-03-20T05:27:28;101680.00;;;24.50
44429;BMP180;30134;47.866;-4.222;2023-03-20T05:29:54;101672.00;;;24.50
44429;BMP180;30134;47.866;-4.222;2023-03-20T05:32:20;101675.00;;;24.60
44429;BMP180;30134;47.866;-4.222;2023-03-20T05:34:48;101679.00;;;24.60
44429;BMP180;30134;47.866;-4.222;2023-03-20T05:37:15;101677.00;;;24.50
44429;BMP180;30134;47.866;-4.222;2023-03-20T05:39:41;101678.00;;;24.60
44429;BMP180;30134;47.866;-4.222;2023-03-20T05:42:07;101675.00;;;24.50
44429;BMP180;30134;47.866;-4.222;2023-03-20T05:44:33;101674.00;;;24.60
44429;BMP180;30134;47.866;-4.222;2023-03-20T05:46:59;101682.00;;;24.50
44429;BMP180;30134;47.866;-4.222;2023-03-20T05:49:25;101668.00;;;24.50
44429;BMP180;30134;47.866;-4.222;2023-03-20T05:51:51;101675.00;;;24.60
44429;BMP180;30134;47.866;-4.222;2023-03-20T05:54:17;101672.00;;;24.50
44429;BMP180;30134;47.866;-4.222;2023-03-20T05:56:43;101678.00;;;24.60
44429;BMP180;30134;47.866;-4.222;2023-03-20T05:59:10;101677.00;;;24.50
44429;BMP180;30134;47.866;-4.222;2023-03-20T06:01:37;101672.00;;;24.50
44429;BMP180;30134;47.866;-4.222;2023-03-20T06:04:03;101686.00;;;24.50
44429;BMP180;30134;47.866;-4.222;2023-03-20T06:06:29;101676.00;;;24.50
44429;BMP180;30134;47.866;-4.222;2023-03-20T06:08:55;101682.00;;;24.50
44429;BMP180;30134;47.866;-4.222;2023-03-20T06:11:21;101686.00;;;24.60
44429;BMP180;30134;47.866;-4.222;2023-03-20T06:13:47;101693.00;;;24.60
44429;BMP180;30134;47.866;-4.222;2023-03-20T06:16:15;101690.00;;;24.50
44429;BMP180;30134;47.866;-4.222;2023-03-20T06:18:41;101688.00;;;24.50
44429;BMP180;30134;47.866;-4.222;2023-03-20T06:21:07;101684.00;;;24.50
44429;BMP180;30134;47.866;-4.222;2023-03-20T06:23:34;101683.00;;;24.60
44429;BMP180;30134;47.866;-4.222;2023-03-20T06:26:01;101688.00;;;24.50
44429;BMP180;30134;47.866;-4.222;2023-03-20T06:28:27;101694.00;;;24.50
44429;BMP180;30134;47.866;-4.222;2023-03-20T06:30:53;101696.00;;;24.50
44429;BMP180;30134;47.866;-4.222;2023-03-20T06:33:20;101691.00;;;24.50
44429;BMP180;30134;47.866;-4.222;2023-03-20T06:35:46;101696.00;;;24.50
44429;BMP180;30134;47.866;-4.222;2023-03-20T06:38:13;101693.00;;;24.50
44429;BMP180;30134;47.866;-4.222;2023-03-20T06:40:39;101694.00;;;24.50
44429;BMP180;30134;47.866;-4.222;2023-03-20T06:43:06;101687.00;;;24.50
44429;BMP180;30134;47.866;-4.222;2023-03-20T06:45:32;101694.00;;;24.50
44429;BMP180;30134;47.866;-4.222;2023-03-20T06:47:58;101697.00;;;24.50
44429;BMP180;30134;47.866;-4.222;2023-03-20T06:50:24;101704.00;;;24.50
44429;BMP180;30134;47.866;-4.222;2023-03-20T06:52:50;101705.00;;;24.50
44429;BMP180;30134;47.866;-4.222;2023-03-20T06:55:17;101706.00;;;24.60
44429;BMP180;30134;47.866;-4.222;2023-03-20T06:57:44;101710.00;;;24.60
44429;BMP180;30134;47.866;-4.222;2023-03-20T07:00:10;101713.00;;;24.50
44429;BMP180;30134;47.866;-4.222;2023-03-20T07:02:37;101716.00;;;24.50
44429;BMP180;30134;47.866;-4.222;2023-03-20T07:05:03;101711.00;;;24.60
44429;BMP180;30134;47.866;-4.222;2023-03-20T07:07:29;101712.00;;;24.60
44429;BMP180;30134;47.866;-4.222;2023-03-20T07:09:55;101717.00;;;24.50
44429;BMP180;30134;47.866;-4.222;2023-03-20T07:12:24;101721.00;;;24.60
44429;BMP180;30134;47.866;-4.222;2023-03-20T07:14:53;101719.00;;;24.50
44429;BMP180;30134;47.866;-4.222;2023-03-20T07:17:21;101713.00;;;24.60
44429;BMP180;30134;47.866;-4.222;2023-03-20T07:19:48;101710.00;;;24.50
44429;BMP180;30134;47.866;-4.222;2023-03-20T07:22:26;101710.00;;;24.50
44429;BMP180;30134;47.866;-4.222;2023-03-20T07:24:57;101711.00;;;24.50
44429;BMP180;30134;47.866;-4.222;2023-03-20T07:27:23;101709.00;;;24.50
44429;BMP180;30134;47.866;-4.222;2023-03-20T07:29:49;101701.00;;;24.50
44429;BMP180;30134;47.866;-4.222;2023-03-20T07:32:15;101701.00;;;24.60
44429;BMP180;30134;47.866;-4.222;2023-03-20T07:34:41;101700.00;;;24.50
44429;BMP180;30134;47.866;-4.222;2023-03-20T07:37:07;101701.00;;;24.50
44429;BMP180;30134;47.866;-4.222;2023-03-20T07:39:33;101698.00;;;24.50
44429;BMP180;30134;47.866;-4.222;2023-03-20T07:41:59;101699.00;;;24.50
44429;BMP180;30134;47.866;-4.222;2023-03-20T07:44:25;101706.00;;;24.50
44429;BMP180;30134;47.866;-4.222;2023-03-20T07:46:52;101700.00;;;24.50
44429;BMP180;30134;47.866;-4.222;2023-03-20T07:49:18;101703.00;;;24.50
44429;BMP180;30134;47.866;-4.222;2023-03-20T07:51:50;101703.00;;;24.50
44429;BMP180;30134;47.866;-4.222;2023-03-20T07:54:16;101706.00;;;24.50
44429;BMP180;30134;47.866;-4.222;2023-03-20T07:56:42;101699.00;;;24.50
44429;BMP180;30134;47.866;-4.222;2023-03-20T07:59:08;101692.00;;;24.60
44429;BMP180;30134;47.866;-4.222;2023-03-20T08:01:34;101692.00;;;24.50
44429;BMP180;30134;47.866;-4.222;2023-03-20T08:04:00;101692.00;;;24.50
44429;BMP180;30134;47.866;-4.222;2023-03-20T08:06:28;101688.00;;;24.50
44429;BMP180;30134;47.866;-4.222;2023-03-20T08:08:54;101692.00;;;24.50
44429;BMP180;30134;47.866;-4.222;2023-03-20T08:11:20;101681.00;;;24.50
44429;BMP180;30134;47.866;-4.222;2023-03-20T08:13:46;101678.00;;;24.60
44429;BMP180;30134;47.866;-4.222;2023-03-20T08:16:12;101677.00;;;24.60
44429;BMP180;30134;47.866;-4.222;2023-03-20T08:18:38;101678.00;;;24.50
44429;BMP180;30134;47.866;-4.222;2023-03-20T08:21:04;101681.00;;;24.50
44429;BMP180;30134;47.866;-4.222;2023-03-20T08:23:30;101673.00;;;24.60
44429;BMP180;30134;47.866;-4.222;2023-03-20T08:25:56;101677.00;;;24.60
44429;BMP180;30134;47.866;-4.222;2023-03-20T08:28:22;101681.00;;;24.60
44429;BMP180;30134;47.866;-4.222;2023-03-20T08:30:49;101673.00;;;24.50
44429;BMP180;30134;47.866;-4.222;2023-03-20T08:33:16;101668.00;;;24.50
44429;BMP180;30134;47.866;-4.222;2023-03-20T08:35:43;101670.00;;;24.60
44429;BMP180;30134;47.866;-4.222;2023-03-20T08:38:12;101661.00;;;24.50
44429;BMP180;30134;47.866;-4.222;2023-03-20T08:40:41;101661.00;;;24.50
44429;BMP180;30134;47.866;-4.222;2023-03-20T08:43:07;101659.00;;;24.50
44429;BMP180;30134;47.866;-4.222;2023-03-20T08:45:33;101666.00;;;24.50
44429;BMP180;30134;47.866;-4.222;2023-03-20T08:47:59;101658.00;;;24.50
44429;BMP180;30134;47.866;-4.222;2023-03-20T08:50:25;101654.00;;;24.50
44429;BMP180;30134;47.866;-4.222;2023-03-20T08:52:52;101663.00;;;24.50
44429;BMP180;30134;47.866;-4.222;2023-03-20T08:55:18;101662.00;;;24.50
44429;BMP180;30134;47.866;-4.222;2023-03-20T08:57:45;101664.00;;;24.50
44429;BMP180;30134;47.866;-4.222;2023-03-20T09:00:14;101657.00;;;24.50
44429;BMP180;30134;47.866;-4.222;2023-03-20T09:02:41;101653.00;;;24.50
44429;BMP180;30134;47.866;-4.222;2023-03-20T09:05:09;101661.00;;;24.60
44429;BMP180;30134;47.866;-4.222;2023-03-20T09:07:35;101654.00;;;24.50
44429;BMP180;30134;47.866;-4.222;2023-03-20T09:10:03;101652.00;;;24.60
44429;BMP180;30134;47.866;-4.222;2023-03-20T09:12:29;101653.00;;;24.60
44429;BMP180;30134;47.866;-4.222;2023-03-20T09:15:01;101650.00;;;24.60
44429;BMP180;30134;47.866;-4.222;2023-03-20T09:17:27;101648.00;;;24.60
44429;BMP180;30134;47.866;-4.222;2023-03-20T09:19:59;101641.00;;;24.30
44429;BMP180;30134;47.866;-4.222;2023-03-20T09:22:25;101648.00;;;23.90
44429;BMP180;30134;47.866;-4.222;2023-03-20T09:24:51;101654.00;;;22.70
44429;BMP180;30134;47.866;-4.222;2023-03-20T09:27:18;101649.00;;;21.90
44429;BMP180;30134;47.866;-4.222;2023-03-20T09:29:44;101644.00;;;21.70
44429;BMP180;30134;47.866;-4.222;2023-03-20T09:32:14;101654.00;;;21.70
44429;BMP180;30134;47.866;-4.222;2023-03-20T09:34:41;101652.00;;;21.70
44429;BMP180;30134;47.866;-4.222;2023-03-20T09:37:07;101664.00;;;21.70
44429;BMP180;30134;47.866;-4.222;2023-03-20T09:39:33;101655.00;;;21.70
44429;BMP180;30134;47.866;-4.222;2023-03-20T09:45:13;101660.00;;;21.50
44429;BMP180;30134;47.866;-4.222;2023-03-20T09:47:57;101654.00;;;21.40
44429;BMP180;30134;47.866;-4.222;2023-03-20T09:50:38;101651.00;;;21.30
44429;BMP180;30134;47.866;-4.222;2023-03-20T09:55:52;101649.00;;;21.30
44429;BMP180;30134;47.866;-4.222;2023-03-20T09:58:34;101637.00;;;21.20
44429;BMP180;30134;47.866;-4.222;2023-03-20T10:01:04;101636.00;;;21.20
44429;BMP180;30134;47.866;-4.222;2023-03-20T10:03:54;101637.00;;;21.20
44429;BMP180;30134;47.866;-4.222;2023-03-20T10:06:21;101630.00;;;21.10
44429;BMP180;30134;47.866;-4.222;2023-03-20T10:08:48;101641.00;;;21.10
44429;BMP180;30134;47.866;-4.222;2023-03-20T10:11:45;101633.00;;;21.10
44429;BMP180;30134;47.866;-4.222;2023-03-20T10:23:07;101630.00;;;21.00
44429;BMP180;30134;47.866;-4.222;2023-03-20T10:25:50;101635.00;;;21.00
44429;BMP180;30134;47.866;-4.222;2023-03-20T10:28:30;101644.00;;;20.90
44429;BMP180;30134;47.866;-4.222;2023-03-20T10:42:36;101637.00;;;20.80
44429;BMP180;30134;47.866;-4.222;2023-03-20T10:47:47;101638.00;;;20.80
44429;BMP180;30134;47.866;-4.222;2023-03-20T10:50:29;101631.00;;;20.80
44429;BMP180;30134;47.866;-4.222;2023-03-20T10:52:58;101630.00;;;20.70
44429;BMP180;30134;47.866;-4.222;2023-03-20T10:55:31;101639.00;;;20.80
44429;BMP180;30134;47.866;-4.222;2023-03-20T10:58:23;101630.00;;;20.70
44429;BMP180;30134;47.866;-4.222;2023-03-20T11:00:50;101630.00;;;20.70
44429;BMP180;30134;47.866;-4.222;2023-03-20T11:03:28;101630.00;;;20.70
44429;BMP180;30134;47.866;-4.222;2023-03-20T11:06:02;101630.00;;;20.70
44429;BMP180;30134;47.866;-4.222;2023-03-20T11:08:35;101636.00;;;20.70
44429;BMP180;30134;47.866;-4.222;2023-03-20T11:11:03;101631.00;;;20.70
44429;BMP180;30134;47.866;-4.222;2023-03-20T11:16:30;101633.00;;;20.70
44429;BMP180;30134;47.866;-4.222;2023-03-20T11:19:09;101638.00;;;20.70
44429;BMP180;30134;47.866;-4.222;2023-03-20T11:21:54;101630.00;;;20.70
44429;BMP180;30134;47.866;-4.222;2023-03-20T11:24:40;101621.00;;;20.80
44429;BMP180;30134;47.866;-4.222;2023-03-20T11:27:11;101631.00;;;20.70
44429;BMP180;30134;47.866;-4.222;2023-03-20T11:29:38;101627.00;;;20.70
44429;BMP180;30134;47.866;-4.222;2023-03-20T11:32:39;101620.00;;;20.70
44429;BMP180;30134;47.866;-4.222;2023-03-20T11:38:06;101622.00;;;20.70
44429;BMP180;30134;47.866;-4.222;2023-03-20T11:40:33;101622.00;;;20.70
44429;BMP180;30134;47.866;-4.222;2023-03-20T11:45:29;101626.00;;;20.70
44429;BMP180;30134;47.866;-4.222;2023-03-20T11:48:00;101622.00;;;20.70
44429;BMP180;30134;47.866;-4.222;2023-03-20T11:50:38;101615.00;;;20.70
44429;BMP180;30134;47.866;-4.222;2023-03-20T11:53:33;101623.00;;;20.70
44429;BMP180;30134;47.866;-4.222;2023-03-20T11:56:10;101622.00;;;20.70
44429;BMP180;30134;47.866;-4.222;2023-03-20T12:01:14;101607.00;;;20.70
44429;BMP180;30134;47.866;-4.222;2023-03-20T12:06:35;101623.00;;;20.70
44429;BMP180;30134;47.866;-4.222;2023-03-20T12:09:08;101609.00;;;20.60
44429;BMP180;30134;47.866;-4.222;2023-03-20T12:20:34;101595.00;;;20.60
44429;BMP180;30134;47.866;-4.222;2023-03-20T12:25:57;101596.00;;;20.60
44429;BMP180;30134;47.866;-4.222;2023-03-20T12:28:33;101597.00;;;20.70
44429;BMP180;30134;47.866;-4.222;2023-03-20T12:31:23;101593.00;;;20.70
44429;BMP180;30134;47.866;-4.222;2023-03-20T12:34:00;101588.00;;;20.70
44429;BMP180;30134;47.866;-4.222;2023-03-20T12:36:34;101591.00;;;20.70
44429;BMP180;30134;47.866;-4.222;2023-03-20T12:39:09;101587.00;;;20.60
44429;BMP180;30134;47.866;-4.222;2023-03-20T12:44:57;101589.00;;;20.60
44429;BMP180;30134;47.866;-4.222;2023-03-20T12:54:27;101585.00;;;20.70
44429;BMP180;30134;47.866;-4.222;2023-03-20T13:02:43;101570.00;;;20.60
44429;BMP180;30134;47.866;-4.222;2023-03-20T13:08:35;101569.00;;;20.60
44429;BMP180;30134;47.866;-4.222;2023-03-20T13:13:51;101571.00;;;20.70
44429;BMP180;30134;47.866;-4.222;2023-03-20T13:19:58;101566.00;;;20.70
44429;BMP180;30134;47.866;-4.222;2023-03-20T13:24:45;101566.00;;;20.70
44429;BMP180;30134;47.866;-4.222;2023-03-20T13:27:37;101560.00;;;20.60
44429;BMP180;30134;47.866;-4.222;2023-03-20T13:30:33;101559.00;;;20.60
44429;BMP180;30134;47.866;-4.222;2023-03-20T13:38:25;101556.00;;;20.60
44429;BMP180;30134;47.866;-4.222;2023-03-20T13:41:01;101553.00;;;20.60
44429;BMP180;30134;47.866;-4.222;2023-03-20T13:43:44;101553.00;;;20.60
44429;BMP180;30134;47.866;-4.222;2023-03-20T13:46:18;101560.00;;;20.70
44429;BMP180;30134;47.866;-4.222;2023-03-20T13:48:45;101556.00;;;20.60
44429;BMP180;30134;47.866;-4.222;2023-03-20T14:03:18;101545.00;;;20.70
44429;BMP180;30134;47.866;-4.222;2023-03-20T14:05:46;101528.00;;;20.60
44429;BMP180;30134;47.866;-4.222;2023-03-20T14:08:35;101529.00;;;20.70
44429;BMP180;30134;47.866;-4.222;2023-03-20T14:13:56;101530.00;;;20.70
44429;BMP180;30134;47.866;-4.222;2023-03-20T14:16:27;101525.00;;;20.60
44429;BMP180;30134;47.866;-4.222;2023-03-20T14:19:19;101522.00;;;20.60
44429;BMP180;30134;47.866;-4.222;2023-03-20T14:21:52;101521.00;;;20.60
44429;BMP180;30134;47.866;-4.222;2023-03-20T14:24:21;101518.00;;;20.60
44429;BMP180;30134;47.866;-4.222;2023-03-20T14:26:51;101515.00;;;20.60
44429;BMP180;30134;47.866;-4.222;2023-03-20T14:29:33;101516.00;;;20.60
44429;BMP180;30134;47.866;-4.222;2023-03-20T14:32:29;101512.00;;;20.60
44429;BMP180;30134;47.866;-4.222;2023-03-20T14:35:37;101515.00;;;20.60
44429;BMP180;30134;47.866;-4.222;2023-03-20T14:38:24;101514.00;;;20.60
44429;BMP180;30134;47.866;-4.222;2023-03-20T14:41:03;101501.00;;;20.60
44429;BMP180;30134;47.866;-4.222;2023-03-20T14:47:09;101503.00;;;20.70
44429;BMP180;30134;47.866;-4.222;2023-03-20T14:57:45;101504.00;;;21.60
44429;BMP180;30134;47.866;-4.222;2023-03-20T15:00:26;101513.00;;;21.80
44429;BMP180;30134;47.866;-4.222;2023-03-20T15:03:14;101498.00;;;21.90
44429;BMP180;30134;47.866;-4.222;2023-03-20T15:05:42;101493.00;;;21.90
44429;BMP180;30134;47.866;-4.222;2023-03-20T15:08:23;101492.00;;;22.10
44429;BMP180;30134;47.866;-4.222;2023-03-20T15:10:54;101493.00;;;22.10
44429;BMP180;30134;47.866;-4.222;2023-03-20T15:13:22;101486.00;;;22.20
44429;BMP180;30134;47.866;-4.222;2023-03-20T15:16:03;101486.00;;;22.20
44429;BMP180;30134;47.866;-4.222;2023-03-20T15:18:36;101483.00;;;22.20
44429;BMP180;30134;47.866;-4.222;2023-03-20T15:21:02;101478.00;;;22.30
44429;BMP180;30134;47.866;-4.222;2023-03-20T15:23:28;101475.00;;;22.40
44429;BMP180;30134;47.866;-4.222;2023-03-20T15:25:54;101473.00;;;22.40
44429;BMP180;30134;47.866;-4.222;2023-03-20T15:28:25;101481.00;;;22.50
44429;BMP180;30134;47.866;-4.222;2023-03-20T15:30:56;101473.00;;;22.50
44429;BMP180;30134;47.866;-4.222;2023-03-20T15:33:26;101471.00;;;22.50
44429;BMP180;30134;47.866;-4.222;2023-03-20T15:35:54;101462.00;;;22.60
44429;BMP180;30134;47.866;-4.222;2023-03-20T15:38:21;101466.00;;;22.50
44429;BMP180;30134;47.866;-4.222;2023-03-20T15:40:47;101453.00;;;22.60
44429;BMP180;30134;47.866;-4.222;2023-03-20T15:43:23;101453.00;;;22.60
44429;BMP180;30134;47.866;-4.222;2023-03-20T15:45:51;101454.00;;;22.70
44429;BMP180;30134;47.866;-4.222;2023-03-20T15:48:23;101454.00;;;22.70
44429;BMP180;30134;47.866;-4.222;2023-03-20T15:50:59;101454.00;;;22.80
44429;BMP180;30134;47.866;-4.222;2023-03-20T15:53:35;101451.00;;;22.80
44429;BMP180;30134;47.866;-4.222;2023-03-20T15:56:14;101454.00;;;22.80
44429;BMP180;30134;47.866;-4.222;2023-03-20T15:58:43;101449.00;;;22.80
44429;BMP180;30134;47.866;-4.222;2023-03-20T16:01:17;101438.00;;;22.80
44429;BMP180;30134;47.866;-4.222;2023-03-20T16:03:44;101439.00;;;22.90
44429;BMP180;30134;47.866;-4.222;2023-03-20T16:06:12;101442.00;;;22.90
44429;BMP180;30134;47.866;-4.222;2023-03-20T16:08:41;101428.00;;;22.90
44429;BMP180;30134;47.866;-4.222;2023-03-20T16:11:15;101422.00;;;23.00
44429;BMP180;30134;47.866;-4.222;2023-03-20T16:13:46;101428.00;;;23.00
44429;BMP180;30134;47.866;-4.222;2023-03-20T16:16:17;101421.00;;;23.10
44429;BMP180;30134;47.866;-4.222;2023-03-20T16:18:44;101417.00;;;23.10
44429;BMP180;30134;47.866;-4.222;2023-03-20T16:21:22;101414.00;;;23.10
44429;BMP180;30134;47.866;-4.222;2023-03-20T16:23:54;101416.00;;;23.10
44429;BMP180;30134;47.866;-4.222;2023-03-20T16:26:22;101415.00;;;23.10
44429;BMP180;30134;47.866;-4.222;2023-03-20T16:28:58;101410.00;;;23.10
44429;BMP180;30134;47.866;-4.222;2023-03-20T16:31:35;101417.00;;;23.20
44429;BMP180;30134;47.866;-4.222;2023-03-20T16:34:12;101422.00;;;23.20
44429;BMP180;30134;47.866;-4.222;2023-03-20T16:36:55;101414.00;;;23.20
44429;BMP180;30134;47.866;-4.222;2023-03-20T16:39:28;101416.00;;;23.20
44429;BMP180;30134;47.866;-4.222;2023-03-20T16:42:17;101412.00;;;23.30
44429;BMP180;30134;47.866;-4.222;2023-03-20T16:44:56;101416.00;;;23.20
44429;BMP180;30134;47.866;-4.222;2023-03-20T16:47:36;101415.00;;;23.20
44429;BMP180;30134;47.866;-4.222;2023-03-20T16:50:22;101410.00;;;23.20
44429;BMP180;30134;47.866;-4.222;2023-03-20T16:52:58;101412.00;;;23.30